Time;durP1;ratioP1;P1;durP2;ratioP2;P2;SDS_P1;SDS_P2;PMS_P1;PMS_P2;Temp;Humidity;BMP_temperature;BMP_pressure;BME280_temperature;BME280_humidity;BME280_pressure;Samples;Min_cycle;Max_cycle;Signal;HPM_P1;HPM_P2
2021/01/12 00:00:29;;;;;;;1.13;1.03;;;6.60;99.90;;;;;;5016003;28;20025;-72
2021/01/12 00:02:56;;;;;;;0.40;0.40;;;6.70;99.90;;;;;;5016828;28;20029;-72
2021/01/12 00:05:22;;;;;;;1.30;1.20;;;6.70;99.90;;;;;;5033421;28;20164;-72
2021/01/12 00:07:49;;;;;;;0.38;0.38;;;6.70;99.90;;;;;;5016445;28;20050;-72
2021/01/12 00:10:17;;;;;;;0.43;0.43;;;6.60;99.90;;;;;;5011443;28;20079;-72
2021/01/12 00:12:43;;;;;;;0.73;0.73;;;6.60;99.90;;;;;;5017447;28;20037;-72
2021/01/12 00:15:09;;;;;;;0.20;0.20;;;6.60;99.90;;;;;;5019220;28;20030;-69
2021/01/12 00:17:34;;;;;;;2.60;2.22;;;6.60;99.90;;;;;;5017748;28;20060;-72
2021/01/12 00:20:00;;;;;;;1.97;0.90;;;6.70;99.90;;;;;;5018881;28;20337;-69
2021/01/12 00:22:26;;;;;;;0.77;0.77;;;6.70;99.90;;;;;;5019130;28;20104;-70
2021/01/12 00:24:52;;;;;;;3.83;1.70;;;6.60;99.90;;;;;;5016671;28;20503;-72
2021/01/12 00:27:21;;;;;;;2.80;0.70;;;6.60;99.90;;;;;;5018484;28;20148;-71
2021/01/12 00:29:47;;;;;;;0.98;0.85;;;6.60;99.90;;;;;;5004107;28;20168;-71
2021/01/12 00:32:15;;;;;;;2.07;0.87;;;6.60;99.90;;;;;;5018910;28;20109;-69
2021/01/12 00:34:41;;;;;;;0.65;0.65;;;6.60;99.90;;;;;;5018035;28;20058;-71
2021/01/12 00:37:07;;;;;;;2.17;1.43;;;6.60;99.90;;;;;;5016192;28;20073;-71
2021/01/12 00:39:33;;;;;;;1.70;1.00;;;6.60;99.90;;;;;;5018044;28;20041;-73
2021/01/12 00:41:59;;;;;;;3.10;1.17;;;6.60;99.90;;;;;;5018533;28;20037;-69
2021/01/12 00:44:26;;;;;;;0.77;0.77;;;6.60;99.90;;;;;;5016284;28;20040;-69
2021/01/12 00:46:52;;;;;;;;;;;6.60;99.90;;;;;;5017540;28;20026;-71
2021/01/12 00:49:19;;;;;;;5.07;1.02;;;6.60;99.90;;;;;;5026697;28;19909;-72
2021/01/12 00:51:46;;;;;;;0.75;0.40;;;6.60;99.90;;;;;;5016795;28;20096;-71
2021/01/12 00:54:14;;;;;;;1.33;0.95;;;6.60;99.90;;;;;;5016795;28;20125;-72
2021/01/12 00:56:40;;;;;;;2.33;0.70;;;6.60;99.90;;;;;;5018824;28;20038;-72
2021/01/12 00:59:06;;;;;;;17.80;1.05;;;6.60;99.90;;;;;;5018827;28;20382;-71
2021/01/12 01:01:33;;;;;;;1.60;0.83;;;6.70;99.90;;;;;;5019694;28;20109;-71
2021/01/12 01:03:59;;;;;;;0.40;0.40;;;6.70;99.90;;;;;;5019514;28;20056;-71
2021/01/12 01:06:25;;;;;;;0.33;0.33;;;6.70;99.90;;;;;;5020498;28;20534;-72
2021/01/12 01:08:51;;;;;;;1.20;0.65;;;6.70;99.90;;;;;;5018097;28;20029;-72
2021/01/12 01:11:17;;;;;;;0.77;0.65;;;6.80;99.90;;;;;;5012534;28;20073;-72
2021/01/12 01:13:43;;;;;;;0.93;0.85;;;6.80;99.90;;;;;;5017479;28;20062;-72
2021/01/12 01:16:09;;;;;;;0.28;0.28;;;6.80;99.90;;;;;;5014816;28;20528;-72
2021/01/12 01:18:35;;;;;;;0.73;0.47;;;6.80;99.90;;;;;;5015146;28;20030;-73
2021/01/12 01:21:01;;;;;;;1.08;0.98;;;6.90;99.90;;;;;;5012886;28;20049;-72
2021/01/12 01:23:27;;;;;;;2.97;0.45;;;6.80;99.90;;;;;;5031175;28;20072;-72
2021/01/12 01:25:53;;;;;;;0.40;0.40;;;6.90;99.90;;;;;;5018954;28;20116;-72
2021/01/12 01:28:22;;;;;;;0.10;0.10;;;6.90;99.90;;;;;;5016639;28;20033;-72
2021/01/12 01:30:54;;;;;;;0.80;0.75;;;6.90;99.90;;;;;;5006293;28;20029;-72
2021/01/12 01:33:20;;;;;;;0.20;0.20;;;6.90;99.90;;;;;;5017223;28;20034;-71
2021/01/12 01:35:47;;;;;;;2.53;1.35;;;7.00;99.90;;;;;;5016542;28;20352;-71
2021/01/12 01:38:14;;;;;;;0.13;0.13;;;7.00;99.90;;;;;;5002188;28;20425;-73
2021/01/12 01:40:39;;;;;;;0.63;0.57;;;7.10;99.90;;;;;;5016004;28;20105;-70
2021/01/12 01:43:06;;;;;;;3.00;1.90;;;7.10;99.90;;;;;;5014209;28;20387;-74
2021/01/12 01:45:31;;;;;;;0.93;0.47;;;7.20;99.90;;;;;;5007392;28;20088;-73
2021/01/12 01:48:02;;;;;;;10.47;0.53;;;7.20;99.90;;;;;;5012264;28;20041;-72
2021/01/12 01:50:28;;;;;;;0.28;0.28;;;7.30;99.90;;;;;;5014691;28;20038;-71
2021/01/12 01:52:55;;;;;;;3.10;1.70;;;7.30;99.90;;;;;;5013947;28;20029;-73
2021/01/12 01:55:24;;;;;;;2.25;0.90;;;7.40;99.90;;;;;;5014065;28;20333;-72
2021/01/12 01:57:50;;;;;;;1.55;0.15;;;7.40;99.90;;;;;;5014152;28;20030;-70
2021/01/12 02:00:20;;;;;;;0.40;0.40;;;7.40;99.90;;;;;;5013164;28;20405;-71
2021/01/12 02:03:04;;;;;;;1.48;0.45;;;7.40;99.90;;;;;;5014912;28;20069;-71
2021/01/12 02:05:34;;;;;;;0.98;0.88;;;7.50;99.90;;;;;;5013878;28;20076;-70
2021/01/12 02:08:06;;;;;;;0.50;0.38;;;7.50;99.90;;;;;;5014687;28;20032;-71
2021/01/12 02:10:39;;;;;;;0.05;0.05;;;7.50;99.90;;;;;;5015939;28;20085;-72
2021/01/12 02:13:06;;;;;;;0.10;0.10;;;7.50;99.90;;;;;;5013720;28;20471;-73
2021/01/12 02:15:32;;;;;;;0.38;0.38;;;7.50;99.90;;;;;;5013302;28;20033;-74
2021/01/12 02:17:58;;;;;;;0.68;0.68;;;7.50;99.90;;;;;;5014891;28;20098;-73
2021/01/12 02:20:29;;;;;;;3.90;0.70;;;7.50;99.90;;;;;;5029277;28;20029;-73
2021/01/12 02:23:03;;;;;;;2.95;2.03;;;7.50;99.90;;;;;;5014843;28;20113;-73
2021/01/12 02:25:31;;;;;;;3.30;0.75;;;7.50;99.90;;;;;;5011761;28;20112;-72
2021/01/12 02:27:56;;;;;;;3.38;0.52;;;7.50;99.90;;;;;;5014736;28;20036;-72
2021/01/12 02:30:22;;;;;;;1.23;0.80;;;7.60;99.90;;;;;;5012822;28;20022;-72
2021/01/12 02:32:48;;;;;;;6.80;0.70;;;7.60;99.90;;;;;;5014237;28;20051;-73
2021/01/12 02:35:17;;;;;;;6.07;0.97;;;7.60;99.90;;;;;;5012821;28;20022;-72
2021/01/12 02:37:44;;;;;;;2.40;0.75;;;7.60;99.90;;;;;;5004972;28;20042;-70
2021/01/12 02:40:10;;;;;;;2.38;1.10;;;7.70;99.90;;;;;;5003979;28;20053;-73
2021/01/12 02:42:40;;;;;;;5.70;1.63;;;7.60;99.90;;;;;;5012256;28;20052;-71
2021/01/12 02:45:07;;;;;;;1.88;0.35;;;7.60;99.90;;;;;;5013535;28;20030;-73
2021/01/12 02:47:32;;;;;;;0.05;0.05;;;7.70;99.90;;;;;;5014797;28;20030;-73
2021/01/12 02:49:58;;;;;;;0.17;0.17;;;7.70;99.90;;;;;;5014713;28;20038;-70
2021/01/12 02:52:24;;;;;;;1.40;1.00;;;7.60;99.90;;;;;;5014899;28;20360;-73
2021/01/12 02:54:50;;;;;;;8.55;1.45;;;7.70;99.90;;;;;;5012325;28;20029;-72
2021/01/12 02:57:15;;;;;;;0.27;0.27;;;7.70;99.90;;;;;;5007411;28;20026;-74
2021/01/12 02:59:41;;;;;;;0.30;0.25;;;7.70;99.90;;;;;;5014207;28;20097;-73
2021/01/12 03:02:06;;;;;;;1.88;1.35;;;7.70;99.90;;;;;;5010751;28;20026;-74
2021/01/12 03:04:32;;;;;;;0.30;0.30;;;7.70;99.90;;;;;;5013854;28;20033;-72
2021/01/12 03:06:58;;;;;;;1.73;1.20;;;7.70;99.90;;;;;;5012726;28;20113;-73
2021/01/12 03:09:23;;;;;;;5.30;0.27;;;7.70;99.90;;;;;;5012840;28;20285;-71
2021/01/12 03:11:51;;;;;;;0.33;0.27;;;7.70;99.90;;;;;;5021586;28;20085;-70
2021/01/12 03:14:16;;;;;;;1.55;1.42;;;7.70;99.90;;;;;;5012688;28;20029;-71
2021/01/12 03:16:42;;;;;;;1.37;0.30;;;7.80;99.90;;;;;;5011453;28;20044;-72
2021/01/12 03:19:08;;;;;;;1.83;0.80;;;7.70;99.90;;;;;;5028005;28;20030;-74
2021/01/12 03:21:33;;;;;;;1.20;1.10;;;7.70;99.90;;;;;;5020122;28;20424;-71
2021/01/12 03:23:59;;;;;;;0.67;0.67;;;7.80;99.90;;;;;;5011291;28;20038;-70
2021/01/12 03:26:25;;;;;;;0.00;0.00;;;7.70;99.90;;;;;;5013313;28;20045;-74
2021/01/12 03:28:50;;;;;;;0.73;0.73;;;7.70;99.90;;;;;;5010951;28;20030;-73
2021/01/12 03:31:16;;;;;;;0.13;0.13;;;7.80;99.90;;;;;;5015032;28;20371;-74
2021/01/12 03:33:42;;;;;;;0.20;0.20;;;7.70;99.90;;;;;;5009346;28;20030;-72
2021/01/12 03:36:08;;;;;;;0.23;0.23;;;7.80;99.90;;;;;;5011525;28;20026;-73
2021/01/12 03:38:34;;;;;;;0.20;0.20;;;7.80;99.90;;;;;;5012418;28;20058;-73
2021/01/12 03:40:59;;;;;;;0.13;0.10;;;7.70;99.90;;;;;;5001637;28;20030;-72
2021/01/12 03:43:25;;;;;;;0.20;0.20;;;7.70;99.90;;;;;;5011659;28;20045;-71
2021/01/12 03:45:51;;;;;;;14.93;0.77;;;7.80;99.90;;;;;;5013348;28;20038;-73
2021/01/12 03:48:17;;;;;;;2.55;0.82;;;7.80;99.90;;;;;;5001284;28;20033;-73
2021/01/12 03:50:43;;;;;;;0.47;0.47;;;7.80;99.90;;;;;;5010067;28;20045;-73
2021/01/12 03:53:09;;;;;;;0.30;0.30;;;7.70;99.90;;;;;;5010430;28;20030;-73
2021/01/12 03:55:34;;;;;;;0.15;0.13;;;7.70;99.90;;;;;;5012978;28;20026;-73
2021/01/12 03:58:00;;;;;;;0.10;0.10;;;7.70;99.90;;;;;;5012811;28;20049;-73
2021/01/12 04:00:26;;;;;;;0.10;0.10;;;7.70;99.90;;;;;;5013334;28;20018;-74
2021/01/12 04:02:51;;;;;;;0.23;0.23;;;7.70;99.90;;;;;;5010920;28;20022;-73
2021/01/12 04:05:18;;;;;;;6.78;0.52;;;7.70;99.90;;;;;;5008764;28;20061;-74
2021/01/12 04:07:44;;;;;;;0.32;0.28;;;7.70;99.90;;;;;;5011087;28;20033;-73
2021/01/12 04:10:11;;;;;;;3.10;0.37;;;7.60;99.90;;;;;;5012167;28;20180;-73
2021/01/12 04:12:37;;;;;;;0.05;0.05;;;7.70;99.90;;;;;;5010320;28;20115;-73
2021/01/12 04:15:04;;;;;;;0.40;0.40;;;7.70;99.90;;;;;;5011602;28;20197;-75
2021/01/12 04:17:30;;;;;;;0.00;0.00;;;7.60;99.90;;;;;;5008409;28;20061;-73
2021/01/12 04:19:55;;;;;;;0.00;0.00;;;7.60;99.90;;;;;;5014418;28;20030;-74
2021/01/12 04:22:21;;;;;;;2.80;1.23;;;7.60;99.90;;;;;;5014586;28;20112;-74
2021/01/12 04:24:49;;;;;;;0.30;0.20;;;7.50;99.90;;;;;;5018645;28;20026;-74
2021/01/12 04:27:15;;;;;;;0.28;0.28;;;7.60;99.90;;;;;;5011325;28;20029;-73
2021/01/12 04:29:40;;;;;;;0.10;0.10;;;7.50;99.90;;;;;;5012686;28;20452;-73
2021/01/12 04:32:06;;;;;;;0.00;0.00;;;7.60;99.90;;;;;;5018456;28;20029;-74
2021/01/12 04:34:32;;;;;;;0.73;0.20;;;7.60;99.90;;;;;;5025093;28;20026;-68
2021/01/12 04:36:58;;;;;;;0.00;0.00;;;7.60;99.90;;;;;;5024197;28;20038;-75
2021/01/12 04:39:24;;;;;;;0.03;0.03;;;7.60;99.90;;;;;;5020548;28;20040;-73
2021/01/12 04:41:49;;;;;;;1.08;0.15;;;7.60;99.90;;;;;;5024235;28;20033;-70
2021/01/12 04:44:15;;;;;;;0.00;0.00;;;7.60;99.90;;;;;;5022988;28;20034;-73
2021/01/12 04:46:41;;;;;;;0.10;0.10;;;7.60;99.90;;;;;;5016159;28;20044;-73
2021/01/12 04:49:07;;;;;;;0.20;0.20;;;7.60;99.90;;;;;;5004657;28;20037;-73
2021/01/12 04:51:33;;;;;;;0.50;0.47;;;7.70;99.90;;;;;;5005811;28;20321;-73
2021/01/12 04:53:58;;;;;;;0.00;0.00;;;7.70;99.90;;;;;;5016404;28;20032;-73
2021/01/12 04:56:24;;;;;;;0.00;0.00;;;7.70;99.90;;;;;;5017009;28;20030;-70
2021/01/12 04:58:51;;;;;;;2.17;1.08;;;7.70;99.90;;;;;;5016776;28;20030;-73
2021/01/12 05:01:20;;;;;;;0.65;0.65;;;7.70;99.90;;;;;;5013205;28;20062;-73
2021/01/12 05:03:48;;;;;;;0.05;0.05;;;7.70;99.90;;;;;;5015592;28;20092;-73
2021/01/12 05:06:15;;;;;;;1.58;0.93;;;7.60;99.90;;;;;;5012900;28;20045;-69
2021/01/12 05:08:42;;;;;;;0.65;0.47;;;7.60;99.90;;;;;;5013227;28;20030;-70
2021/01/12 05:11:09;;;;;;;0.10;0.10;;;7.60;99.90;;;;;;5014300;28;20320;-74
2021/01/12 05:13:35;;;;;;;12.73;0.55;;;7.60;99.90;;;;;;5013486;28;20026;-73
2021/01/12 05:16:07;;;;;;;0.00;0.00;;;7.60;99.90;;;;;;5014488;28;20068;-72
2021/01/12 05:18:41;;;;;;;0.00;0.00;;;7.60;99.90;;;;;;5014812;28;20026;-75
2021/01/12 05:21:09;;;;;;;0.00;0.00;;;7.60;99.90;;;;;;5014758;28;20030;-72
2021/01/12 05:24:05;;;;;;;0.38;0.28;;;7.60;99.90;;;;;;5015935;28;20060;-74
2021/01/12 05:26:38;;;;;;;0.00;0.00;;;7.50;99.90;;;;;;5015206;28;20030;-74
2021/01/12 05:29:06;;;;;;;0.10;0.10;;;7.50;99.90;;;;;;5011216;28;20022;-74
2021/01/12 05:31:34;;;;;;;2.55;0.20;;;7.50;99.90;;;;;;5013642;28;20420;-73
2021/01/12 05:34:10;;;;;;;0.00;0.00;;;7.50;99.90;;;;;;5011080;28;20026;-73
2021/01/12 05:36:53;;;;;;;0.10;0.10;;;7.50;99.90;;;;;;5012184;28;20030;-73
2021/01/12 05:39:24;;;;;;;1.13;0.63;;;7.50;99.90;;;;;;5013692;28;20097;-73
2021/01/12 05:41:54;;;;;;;13.55;0.32;;;7.50;99.90;;;;;;5022512;28;20034;-71
2021/01/12 05:44:22;;;;;;;1.60;0.25;;;7.50;99.90;;;;;;5014333;28;20034;-73
2021/01/12 05:46:52;;;;;;;1.50;0.73;;;7.50;99.90;;;;;;5015351;28;20030;-74
2021/01/12 05:49:22;;;;;;;0.10;0.10;;;7.40;99.90;;;;;;5008868;28;20037;-68
2021/01/12 05:51:49;;;;;;;0.10;0.10;;;7.40;99.90;;;;;;5001600;28;20329;-74
2021/01/12 05:54:27;;;;;;;0.20;0.15;;;7.40;99.90;;;;;;5003300;28;20032;-74
2021/01/12 05:57:04;;;;;;;0.30;0.30;;;7.40;99.90;;;;;;5013982;28;20022;-75
2021/01/12 05:59:35;;;;;;;0.20;0.03;;;7.30;99.90;;;;;;5013339;28;20026;-75
2021/01/12 06:02:14;;;;;;;14.80;0.50;;;7.30;99.90;;;;;;5014070;28;20026;-74
2021/01/12 06:04:43;;;;;;;0.95;0.75;;;7.30;99.90;;;;;;5014018;28;20335;-73
2021/01/12 06:07:08;;;;;;;0.10;0.10;;;7.20;99.90;;;;;;5010872;28;20029;-74
2021/01/12 06:09:36;;;;;;;2.90;1.27;;;7.30;99.90;;;;;;5015213;28;20029;-74
2021/01/12 06:12:01;;;;;;;0.13;0.13;;;7.20;99.90;;;;;;5013536;28;20022;-74
2021/01/12 06:14:28;;;;;;;0.00;0.00;;;7.20;99.90;;;;;;5013295;28;20033;-72
2021/01/12 06:16:56;;;;;;;0.00;0.00;;;7.20;99.90;;;;;;5021465;28;20018;-75
2021/01/12 06:19:21;;;;;;;0.17;0.17;;;7.10;99.90;;;;;;5012578;28;20105;-75
2021/01/12 06:21:56;;;;;;;0.00;0.00;;;7.10;99.90;;;;;;5011825;28;20161;-74
2021/01/12 06:24:30;;;;;;;1.65;0.85;;;7.10;99.90;;;;;;5013190;28;20412;-74
2021/01/12 06:26:58;;;;;;;0.98;0.22;;;7.10;99.90;;;;;;5013965;28;20425;-73
2021/01/12 06:29:23;;;;;;;0.00;0.00;;;7.00;99.90;;;;;;5012887;28;20429;-74
2021/01/12 06:31:49;;;;;;;0.00;0.00;;;7.10;99.90;;;;;;5012426;28;20069;-71
2021/01/12 06:34:20;;;;;;;1.20;0.63;;;7.10;99.90;;;;;;5014125;28;20417;-74
2021/01/12 06:36:51;;;;;;;0.22;0.15;;;7.10;99.90;;;;;;5013235;28;20451;-73
2021/01/12 06:39:21;;;;;;;2.85;0.90;;;7.10;99.90;;;;;;5012228;28;20026;-73
2021/01/12 06:41:51;;;;;;;0.10;0.10;;;7.10;99.90;;;;;;5013576;28;20417;-74
2021/01/12 06:44:26;;;;;;;5.38;1.08;;;7.10;99.90;;;;;;5013661;28;20064;-74
2021/01/12 06:46:54;;;;;;;8.77;1.17;;;7.00;99.90;;;;;;5012542;28;20037;-74
2021/01/12 06:49:22;;;;;;;3.40;1.08;;;7.00;99.90;;;;;;5013924;28;20033;-74
2021/01/12 06:52:15;;;;;;;0.88;0.88;;;7.00;99.90;;;;;;5012138;28;20435;-74
2021/01/12 06:54:48;;;;;;;3.25;0.90;;;7.00;99.90;;;;;;4999262;28;20046;-74
2021/01/12 06:57:21;;;;;;;0.05;0.05;;;7.00;99.90;;;;;;5006308;28;20480;-73
2021/01/12 06:59:54;;;;;;;0.03;0.03;;;7.00;99.90;;;;;;5013038;28;20030;-74
2021/01/12 07:02:27;;;;;;;0.22;0.22;;;7.00;99.90;;;;;;5027680;28;20038;-70
2021/01/12 07:05:07;;;;;;;0.05;0.05;;;7.00;99.90;;;;;;5013629;28;20100;-72
2021/01/12 07:07:40;;;;;;;0.03;0.03;;;6.80;99.90;;;;;;5011325;28;20040;-72
2021/01/12 07:10:08;;;;;;;1.10;0.65;;;6.70;99.90;;;;;;5012376;28;20440;-73
2021/01/12 07:12:35;;;;;;;0.00;0.00;;;6.50;99.90;;;;;;5014461;28;20038;-73
2021/01/12 07:15:10;;;;;;;0.20;0.20;;;6.30;99.90;;;;;;5012130;28;20116;-72
2021/01/12 07:17:45;;;;;;;0.22;0.22;;;6.20;99.90;;;;;;5030891;28;20129;-72
2021/01/12 07:20:18;;;;;;;0.00;0.00;;;6.10;99.90;;;;;;5015069;28;20346;-71
2021/01/12 07:23:01;;;;;;;0.00;0.00;;;6.00;99.90;;;;;;5014277;28;20125;-73
2021/01/12 07:25:31;;;;;;;0.00;0.00;;;5.90;99.90;;;;;;5017151;28;20030;-72
2021/01/12 07:28:03;;;;;;;0.00;0.00;;;5.80;99.90;;;;;;5014966;28;20022;-70
2021/01/12 07:30:29;;;;;;;1.80;1.38;;;5.80;99.90;;;;;;5016723;28;20044;-72
2021/01/12 07:33:00;;;;;;;0.00;0.00;;;5.70;99.90;;;;;;5024429;28;20026;-70
2021/01/12 07:35:27;;;;;;;0.00;0.00;;;5.70;99.90;;;;;;5015734;28;20030;-69
2021/01/12 07:37:53;;;;;;;;;;;5.60;99.90;;;;;;5016008;28;20420;-70
2021/01/12 07:40:20;;;;;;;0.10;0.10;;;5.60;99.90;;;;;;5017729;28;19913;-70
2021/01/12 07:42:55;;;;;;;0.20;0.20;;;5.70;99.90;;;;;;5018058;28;20053;-72
2021/01/12 07:45:23;;;;;;;14.50;0.28;;;5.70;99.90;;;;;;5011826;28;20109;-72
2021/01/12 07:47:53;;;;;;;0.15;0.15;;;5.70;99.90;;;;;;5015642;28;20152;-72
2021/01/12 07:50:23;;;;;;;1.13;0.40;;;5.60;99.90;;;;;;5016907;28;20022;-71
2021/01/12 07:52:49;;;;;;;0.00;0.00;;;5.60;99.90;;;;;;5017829;28;20297;-71
2021/01/12 07:55:15;;;;;;;0.00;0.00;;;5.60;99.90;;;;;;5011317;28;20328;-71
2021/01/12 07:57:42;;;;;;;0.00;0.00;;;5.50;99.90;;;;;;5000231;28;20058;-71
2021/01/12 08:00:13;;;;;;;0.00;0.00;;;5.50;99.90;;;;;;5012724;28;20092;-70
2021/01/12 08:02:59;;;;;;;1.08;0.43;;;5.50;99.90;;;;;;5013378;28;20044;-72
2021/01/12 08:05:26;;;;;;;0.10;0.10;;;5.50;99.90;;;;;;5014712;28;20091;-71
2021/01/12 08:08:04;;;;;;;;;;;5.40;99.90;;;;;;5024830;28;20022;-72
2021/01/12 08:10:31;;;;;;;0.00;0.00;;;5.40;99.90;;;;;;5021826;28;19966;-72
2021/01/12 08:13:06;;;;;;;0.00;0.00;;;5.30;99.90;;;;;;5017401;28;20793;-70
2021/01/12 08:15:33;;;;;;;0.32;0.32;;;5.30;99.90;;;;;;5022554;28;20087;-70
2021/01/12 08:17:59;;;;;;;1.13;0.30;;;5.30;99.90;;;;;;5022136;28;20459;-72
2021/01/12 08:20:25;;;;;;;0.67;0.07;;;5.30;99.90;;;;;;5021360;28;20034;-70
2021/01/12 08:22:55;;;;;;;0.57;0.57;;;5.20;99.90;;;;;;5022251;28;20041;-71
2021/01/12 08:25:22;;;;;;;0.52;0.52;;;5.20;99.90;;;;;;5032114;28;20297;-70
2021/01/12 08:27:49;;;;;;;;;;;5.20;99.90;;;;;;5022748;28;20112;-70
2021/01/12 08:30:18;;;;;;;0.00;0.00;;;5.20;99.90;;;;;;5016907;28;19916;-70
2021/01/12 08:32:49;;;;;;;0.22;0.22;;;5.20;99.90;;;;;;5018366;28;20041;-72
2021/01/12 08:35:16;;;;;;;0.32;0.32;;;5.20;99.90;;;;;;5016046;28;20416;-70
2021/01/12 08:37:44;;;;;;;0.00;0.00;;;5.20;99.90;;;;;;5018995;28;20041;-70
2021/01/12 08:40:13;;;;;;;0.00;0.00;;;5.30;99.90;;;;;;5016270;28;20044;-70
2021/01/12 08:42:40;;;;;;;1.52;0.93;;;5.30;99.90;;;;;;5016843;28;20037;-71
2021/01/12 08:45:13;;;;;;;;;;;5.30;99.90;;;;;;5020655;28;20108;-70
2021/01/12 08:47:38;;;;;;;0.00;0.00;;;5.30;99.90;;;;;;5015233;28;19992;-71
2021/01/12 08:50:06;;;;;;;0.00;0.00;;;5.30;99.90;;;;;;5021842;28;20539;-71
2021/01/12 08:52:32;;;;;;;0.00;0.00;;;5.30;99.90;;;;;;5018897;28;20104;-70
2021/01/12 08:54:58;;;;;;;0.20;0.20;;;5.30;99.90;;;;;;5019450;28;20033;-70
2021/01/12 08:57:24;;;;;;;9.33;0.40;;;5.30;99.90;;;;;;5017003;28;20033;-69
2021/01/12 08:59:50;;;;;;;0.00;0.00;;;5.30;99.90;;;;;;5026613;28;20042;-70
2021/01/12 09:02:20;;;;;;;0.00;0.00;;;5.30;99.90;;;;;;5016487;28;20321;-70
2021/01/12 09:04:47;;;;;;;0.00;0.00;;;5.40;99.90;;;;;;5004402;28;20113;-70
2021/01/12 09:07:15;;;;;;;;;;;5.50;99.90;;;;;;5023198;28;20037;-70
2021/01/12 09:09:51;;;;;;;0.28;0.28;;;5.50;99.90;;;;;;5005193;28;19919;-69
2021/01/12 09:12:17;;;;;;;0.10;0.10;;;5.50;99.90;;;;;;5027736;28;20027;-70
2021/01/12 09:14:48;;;;;;;0.43;0.40;;;5.50;99.90;;;;;;5018390;28;20025;-69
2021/01/12 09:17:20;;;;;;;0.20;0.20;;;5.50;99.90;;;;;;5014948;28;20030;-69
2021/01/12 09:19:53;;;;;;;0.10;0.10;;;5.50;99.90;;;;;;5014722;28;20125;-70
2021/01/12 09:22:20;;;;;;;0.20;0.20;;;5.50;99.90;;;;;;5015137;28;20029;-70
2021/01/12 09:24:50;;;;;;;2.35;1.80;;;5.40;99.90;;;;;;5015893;28;20022;-69
2021/01/12 09:27:24;;;;;;;0.10;0.10;;;5.30;99.90;;;;;;5016909;28;20447;-70
2021/01/12 09:29:50;;;;;;;0.08;0.08;;;5.30;99.90;;;;;;5017283;28;20368;-69
2021/01/12 09:32:34;;;;;;;0.20;0.20;;;5.30;99.90;;;;;;5017307;28;20045;-69
2021/01/12 09:35:03;;;;;;;0.22;0.22;;;5.30;99.90;;;;;;5018191;28;20724;-70
2021/01/12 09:37:29;;;;;;;0.00;0.00;;;5.50;99.90;;;;;;5017829;28;20052;-69
2021/01/12 09:40:02;;;;;;;0.00;0.00;;;5.40;99.90;;;;;;5016742;28;20033;-70
2021/01/12 09:42:28;;;;;;;0.20;0.20;;;5.30;99.90;;;;;;5017126;28;20030;-68
2021/01/12 09:44:55;;;;;;;0.00;0.00;;;5.30;99.90;;;;;;5016299;28;20040;-69
2021/01/12 09:47:21;;;;;;;0.00;0.00;;;5.20;99.90;;;;;;5011840;28;20173;-69
2021/01/12 09:49:47;;;;;;;0.05;0.05;;;5.20;99.90;;;;;;5015608;28;20116;-69
2021/01/12 09:52:15;;;;;;;0.10;0.10;;;5.20;99.90;;;;;;5013750;28;20042;-69
2021/01/12 09:54:46;;;;;;;0.08;0.08;;;5.20;99.90;;;;;;5015620;28;20030;-69
2021/01/12 09:57:13;;;;;;;0.05;0.05;;;5.30;99.90;;;;;;5009990;28;20580;-69
2021/01/12 09:59:39;;;;;;;4.82;0.40;;;5.30;99.90;;;;;;5012058;28;20030;-70
2021/01/12 10:02:05;;;;;;;0.17;0.10;;;5.30;99.90;;;;;;5009650;28;20480;-69
2021/01/12 10:04:31;;;;;;;0.97;0.40;;;5.20;99.90;;;;;;5010877;28;20034;-69
2021/01/12 10:06:58;;;;;;;0.00;0.00;;;5.20;99.90;;;;;;5013325;28;20080;-69
2021/01/12 10:09:25;;;;;;;0.98;0.52;;;5.20;99.90;;;;;;5003506;28;20117;-69
2021/01/12 10:11:50;;;;;;;;;;;5.10;99.90;;;;;;5012428;28;20037;-69
2021/01/12 10:14:21;;;;;;;0.50;0.50;;;5.10;99.90;;;;;;5010369;28;19910;-69
2021/01/12 10:16:47;;;;;;;2.72;1.27;;;5.20;99.90;;;;;;5015640;28;20042;-70
2021/01/12 10:19:14;;;;;;;0.00;0.00;;;5.30;99.90;;;;;;5013228;28;20030;-70
2021/01/12 10:21:40;;;;;;;1.15;1.05;;;5.30;99.90;;;;;;5016441;28;20053;-70
2021/01/12 10:24:06;;;;;;;0.00;0.00;;;5.30;99.90;;;;;;5014764;28;20030;-69
2021/01/12 10:26:32;;;;;;;0.20;0.20;;;5.40;99.90;;;;;;5013778;28;20259;-69
2021/01/12 10:28:59;;;;;;;0.43;0.43;;;5.40;99.90;;;;;;5011067;28;20030;-69
2021/01/12 10:31:25;;;;;;;0.00;0.00;;;5.40;99.90;;;;;;5024280;28;20779;-69
2021/01/12 10:33:51;;;;;;;0.00;0.00;;;5.40;99.90;;;;;;5012254;28;20107;-70
2021/01/12 10:36:18;;;;;;;0.15;0.15;;;5.40;99.90;;;;;;5014741;28;20353;-69
2021/01/12 10:38:45;;;;;;;0.17;0.17;;;5.40;99.90;;;;;;5013747;28;20037;-70
2021/01/12 10:41:12;;;;;;;0.10;0.10;;;5.40;99.90;;;;;;5011233;28;20459;-69
2021/01/12 10:43:37;;;;;;;;;;;5.40;99.90;;;;;;5015313;28;20065;-69
2021/01/12 10:46:04;;;;;;;2.50;0.83;;;5.40;99.90;;;;;;5012289;28;19953;-70
2021/01/12 10:48:30;;;;;;;0.47;0.47;;;5.50;99.90;;;;;;5014141;28;20562;-69
2021/01/12 10:50:55;;;;;;;0.00;0.00;;;5.50;99.90;;;;;;5011890;28;20045;-70
2021/01/12 10:53:21;;;;;;;2.90;0.63;;;5.50;99.90;;;;;;5013805;28;20040;-70
2021/01/12 10:55:49;;;;;;;0.07;0.07;;;5.60;99.90;;;;;;5011041;28;20025;-69
2021/01/12 10:58:15;;;;;;;0.08;0.08;;;5.60;99.90;;;;;;5015462;28;20113;-70
2021/01/12 11:00:40;;;;;;;0.10;0.10;;;5.60;99.90;;;;;;5019367;28;20181;-70
2021/01/12 11:03:07;;;;;;;0.00;0.00;;;5.60;99.90;;;;;;5019114;28;20100;-71
2021/01/12 11:05:36;;;;;;;3.60;1.45;;;5.60;99.90;;;;;;5020674;28;20026;-69
2021/01/12 11:08:03;;;;;;;0.52;0.50;;;5.60;99.90;;;;;;5017284;28;20034;-70
2021/01/12 11:10:29;;;;;;;;;;;5.60;99.90;;;;;;5016448;28;20313;-69
2021/01/12 11:12:56;;;;;;;;;;;5.60;99.90;;;;;;5020544;28;19957;-69
2021/01/12 11:15:22;;;;;;;0.40;0.40;;;5.60;99.90;;;;;;5006175;28;19913;-71
2021/01/12 11:17:47;;;;;;;0.10;0.10;;;5.60;99.90;;;;;;5015159;28;20445;-69
2021/01/12 11:20:15;;;;;;;0.10;0.10;;;5.60;99.90;;;;;;5009140;28;20322;-70
2021/01/12 11:22:42;;;;;;;0.10;0.10;;;5.60;99.90;;;;;;5019897;28;20029;-69
2021/01/12 11:25:09;;;;;;;0.10;0.10;;;5.60;99.90;;;;;;5021297;28;20018;-69
2021/01/12 11:27:35;;;;;;;0.00;0.00;;;5.60;99.90;;;;;;5019841;28;20041;-69
2021/01/12 11:30:01;;;;;;;0.10;0.10;;;5.70;99.90;;;;;;5016073;28;20076;-69
2021/01/12 11:32:31;;;;;;;1.10;1.10;;;5.70;99.90;;;;;;5013027;28;20034;-69
2021/01/12 11:34:57;;;;;;;0.75;0.52;;;5.80;99.90;;;;;;5011077;28;20659;-70
2021/01/12 11:37:23;;;;;;;0.10;0.10;;;5.80;99.90;;;;;;5011876;28;20077;-69
2021/01/12 11:39:48;;;;;;;0.10;0.10;;;5.80;99.90;;;;;;5019612;28;20091;-69
2021/01/12 11:42:15;;;;;;;0.30;0.30;;;5.80;99.90;;;;;;5009313;28;20030;-70
2021/01/12 11:44:41;;;;;;;4.18;0.73;;;5.80;99.90;;;;;;5011466;28;20425;-69
2021/01/12 11:47:08;;;;;;;0.10;0.10;;;5.80;99.90;;;;;;5011519;28;20038;-69
2021/01/12 11:49:34;;;;;;;0.05;0.05;;;5.90;99.90;;;;;;5019330;28;20054;-69
2021/01/12 11:52:08;;;;;;;0.00;0.00;;;6.00;99.90;;;;;;5010960;28;20500;-69
2021/01/12 11:54:34;;;;;;;0.05;0.05;;;6.10;99.90;;;;;;5010667;28;20117;-70
2021/01/12 11:57:00;;;;;;;0.00;0.00;;;6.10;99.90;;;;;;5010413;28;20034;-69
2021/01/12 11:59:27;;;;;;;0.00;0.00;;;6.20;99.90;;;;;;5011744;28;20037;-70
2021/01/12 12:01:54;;;;;;;1.17;0.25;;;6.20;99.90;;;;;;5010900;28;20041;-70
2021/01/12 12:04:22;;;;;;;0.00;0.00;;;6.10;99.90;;;;;;5012671;28;20041;-70
2021/01/12 12:06:58;;;;;;;1.35;0.40;;;6.00;99.90;;;;;;5010284;28;20018;-70
2021/01/12 12:09:25;;;;;;;0.57;0.57;;;5.90;99.90;;;;;;5009981;28;20033;-70
2021/01/12 12:11:51;;;;;;;0.10;0.10;;;6.00;99.90;;;;;;5010143;28;20044;-69
2021/01/12 12:14:17;;;;;;;0.10;0.10;;;6.00;99.90;;;;;;5008541;28;20026;-69
2021/01/12 12:16:47;;;;;;;5.55;0.32;;;6.00;99.90;;;;;;5007621;28;20033;-70
2021/01/12 12:19:17;;;;;;;0.45;0.45;;;6.00;99.90;;;;;;5010342;28;20044;-69
2021/01/12 12:21:54;;;;;;;0.00;0.00;;;6.00;99.90;;;;;;5004350;28;20029;-70
2021/01/12 12:24:22;;;;;;;0.10;0.10;;;6.10;99.90;;;;;;5011175;28;20026;-70
2021/01/12 12:26:50;;;;;;;0.10;0.10;;;6.10;99.90;;;;;;5002734;28;20317;-70
2021/01/12 12:29:16;;;;;;;0.57;0.52;;;6.20;99.90;;;;;;5012735;28;20030;-68
2021/01/12 12:31:43;;;;;;;0.00;0.00;;;6.40;99.90;;;;;;5008706;28;20026;-70
2021/01/12 12:34:09;;;;;;;0.15;0.15;;;6.50;99.90;;;;;;5010314;28;20263;-71
2021/01/12 12:36:35;;;;;;;0.65;0.65;;;6.30;99.90;;;;;;5012472;28;20026;-70
2021/01/12 12:39:01;;;;;;;0.55;0.55;;;6.10;99.90;;;;;;5010129;28;20037;-70
2021/01/12 12:41:31;;;;;;;0.05;0.05;;;5.90;99.90;;;;;;5010802;28;20030;-69
2021/01/12 12:43:58;;;;;;;1.88;1.25;;;5.70;99.90;;;;;;5011141;28;20049;-69
2021/01/12 12:46:24;;;;;;;0.10;0.10;;;5.60;99.90;;;;;;5009995;28;20117;-69
2021/01/12 12:48:49;;;;;;;1.70;0.50;;;5.60;99.90;;;;;;5012061;28;20109;-69
2021/01/12 12:51:15;;;;;;;0.57;0.40;;;5.50;99.90;;;;;;5011957;28;20034;-69
2021/01/12 12:53:41;;;;;;;0.20;0.20;;;5.70;99.90;;;;;;5015173;28;20085;-69
2021/01/12 12:56:15;;;;;;;0.30;0.30;;;5.80;99.90;;;;;;5016458;28;20021;-71
2021/01/12 12:58:41;;;;;;;0.88;0.70;;;5.90;99.90;;;;;;5012866;28;20034;-70
2021/01/12 13:01:10;;;;;;;0.10;0.10;;;5.90;99.90;;;;;;5015584;28;20030;-70
2021/01/12 13:03:36;;;;;;;2.50;0.52;;;5.90;99.90;;;;;;5015481;28;20068;-68